sensor_id;sensor_type;location;lat;lon;timestamp;P1;durP1;ratioP1;P2;durP2;ratioP2
51272;SDS011;37345;59.828;30.328;2022-09-11T14:21:43;3.03;;;1.10;;
51272;SDS011;37345;59.828;30.328;2022-09-11T14:24:24;3.50;;;1.37;;
51272;SDS011;37345;59.828;30.328;2022-09-11T14:26:50;4.53;;;2.33;;
51272;SDS011;37345;59.828;30.328;2022-09-11T14:29:21;11.65;;;5.90;;
51272;SDS011;37345;59.828;30.328;2022-09-11T14:31:48;19.02;;;7.97;;
51272;SDS011;37345;59.828;30.328;2022-09-11T14:34:18;12.63;;;5.85;;
51272;SDS011;37345;59.828;30.328;2022-09-11T14:36:57;9.98;;;4.32;;
51272;SDS011;37345;59.828;30.328;2022-09-11T14:39:46;6.53;;;3.22;;
51272;SDS011;37345;59.828;30.328;2022-09-11T14:42:21;5.72;;;2.67;;
51272;SDS011;37345;59.828;30.328;2022-09-11T14:44:49;7.18;;;2.25;;
51272;SDS011;37345;59.828;30.328;2022-09-11T14:47:16;3.35;;;1.65;;
51272;SDS011;37345;59.828;30.328;2022-09-11T14:49:43;2.67;;;1.63;;
51272;SDS011;37345;59.828;30.328;2022-09-11T14:52:11;6.97;;;3.33;;
51272;SDS011;37345;59.828;30.328;2022-09-11T14:54:38;8.98;;;3.00;;
51272;SDS011;37345;59.828;30.328;2022-09-11T14:57:10;9.00;;;3.78;;
51272;SDS011;37345;59.828;30.328;2022-09-11T14:59:37;9.88;;;3.50;;
51272;SDS011;37345;59.828;30.328;2022-09-11T15:02:03;16.55;;;5.40;;
51272;SDS011;37345;59.828;30.328;2022-09-11T15:04:29;10.38;;;3.60;;
51272;SDS011;37345;59.828;30.328;2022-09-11T15:06:56;13.23;;;5.50;;
51272;SDS011;37345;59.828;30.328;2022-09-11T15:09:23;10.90;;;3.97;;
51272;SDS011;37345;59.828;30.328;2022-09-11T15:11:49;5.18;;;2.50;;
51272;SDS011;37345;59.828;30.328;2022-09-11T15:14:19;7.43;;;3.47;;
51272;SDS011;37345;59.828;30.328;2022-09-11T15:16:46;3.97;;;2.25;;
51272;SDS011;37345;59.828;30.328;2022-09-11T15:19:12;6.32;;;2.45;;
51272;SDS011;37345;59.828;30.328;2022-09-11T15:21:41;5.57;;;2.03;;
51272;SDS011;37345;59.828;30.328;2022-09-11T15:24:07;2.17;;;1.30;;
51272;SDS011;37345;59.828;30.328;2022-09-11T15:26:34;3.75;;;2.10;;
51272;SDS011;37345;59.828;30.328;2022-09-11T15:29:02;2.88;;;1.33;;
51272;SDS011;37345;59.828;30.328;2022-09-11T15:31:34;3.50;;;1.20;;
51272;SDS011;37345;59.828;30.328;2022-09-11T15:34:00;2.20;;;1.20;;
51272;SDS011;37345;59.828;30.328;2022-09-11T15:36:28;2.47;;;1.40;;
51272;SDS011;37345;59.828;30.328;2022-09-11T15:38:55;2.70;;;1.48;;
51272;SDS011;37345;59.828;30.328;2022-09-11T15:41:21;2.03;;;1.02;;
51272;SDS011;37345;59.828;30.328;2022-09-11T15:43:49;1.52;;;1.08;;
51272;SDS011;37345;59.828;30.328;2022-09-11T15:46:16;2.97;;;1.33;;
51272;SDS011;37345;59.828;30.328;2022-09-11T15:48:42;3.33;;;1.30;;
51272;SDS011;37345;59.828;30.328;2022-09-11T15:51:11;2.00;;;1.13;;
51272;SDS011;37345;59.828;30.328;2022-09-11T15:53:41;3.40;;;1.50;;
51272;SDS011;37345;59.828;30.328;2022-09-11T15:58:35;2.28;;;1.30;;
51272;SDS011;37345;59.828;30.328;2022-09-11T16:01:03;3.70;;;1.60;;
51272;SDS011;37345;59.828;30.328;2022-09-11T16:03:29;4.22;;;1.60;;
51272;SDS011;37345;59.828;30.328;2022-09-11T16:05:56;2.83;;;1.47;;
51272;SDS011;37345;59.828;30.328;2022-09-11T16:08:22;3.35;;;1.58;;
51272;SDS011;37345;59.828;30.328;2022-09-11T16:10:49;2.28;;;1.40;;
51272;SDS011;37345;59.828;30.328;2022-09-11T16:13:15;2.97;;;1.60;;
51272;SDS011;37345;59.828;30.328;2022-09-11T16:15:42;3.72;;;1.55;;
51272;SDS011;37345;59.828;30.328;2022-09-11T16:18:08;3.65;;;2.10;;
51272;SDS011;37345;59.828;30.328;2022-09-11T16:20:36;5.60;;;1.63;;
51272;SDS011;37345;59.828;30.328;2022-09-11T16:23:08;3.92;;;1.50;;
51272;SDS011;37345;59.828;30.328;2022-09-11T16:25:40;4.18;;;1.85;;
51272;SDS011;37345;59.828;30.328;2022-09-11T16:28:10;2.63;;;1.70;;
51272;SDS011;37345;59.828;30.328;2022-09-11T16:30:40;3.25;;;1.50;;
51272;SDS011;37345;59.828;30.328;2022-09-11T16:33:10;2.45;;;1.30;;
51272;SDS011;37345;59.828;30.328;2022-09-11T16:35:37;3.38;;;1.60;;
51272;SDS011;37345;59.828;30.328;2022-09-11T16:38:03;2.40;;;1.60;;
51272;SDS011;37345;59.828;30.328;2022-09-11T16:40:31;2.40;;;1.50;;
51272;SDS011;37345;59.828;30.328;2022-09-11T16:42:59;3.22;;;1.80;;
51272;SDS011;37345;59.828;30.328;2022-09-11T16:45:25;3.10;;;1.58;;
51272;SDS011;37345;59.828;30.328;2022-09-11T16:47:57;2.83;;;1.65;;
51272;SDS011;37345;59.828;30.328;2022-09-11T16:50:24;2.15;;;1.60;;
51272;SDS011;37345;59.828;30.328;2022-09-11T16:52:50;2.90;;;1.67;;
51272;SDS011;37345;59.828;30.328;2022-09-11T16:55:18;5.78;;;2.00;;
51272;SDS011;37345;59.828;30.328;2022-09-11T16:57:44;3.15;;;2.20;;
51272;SDS011;37345;59.828;30.328;2022-09-11T17:00:12;3.13;;;2.00;;
51272;SDS011;37345;59.828;30.328;2022-09-11T17:02:38;3.53;;;1.90;;
51272;SDS011;37345;59.828;30.328;2022-09-11T17:05:05;3.45;;;1.95;;
51272;SDS011;37345;59.828;30.328;2022-09-11T17:07:32;3.17;;;2.35;;
51272;SDS011;37345;59.828;30.328;2022-09-11T17:09:59;4.45;;;2.70;;
51272;SDS011;37345;59.828;30.328;2022-09-11T17:12:25;2.83;;;1.85;;
51272;SDS011;37345;59.828;30.328;2022-09-11T17:14:52;3.70;;;2.22;;
51272;SDS011;37345;59.828;30.328;2022-09-11T17:17:19;3.65;;;1.90;;
51272;SDS011;37345;59.828;30.328;2022-09-11T17:19:47;3.28;;;2.00;;
51272;SDS011;37345;59.828;30.328;2022-09-11T17:22:15;5.72;;;1.90;;
51272;SDS011;37345;59.828;30.328;2022-09-11T17:24:41;3.50;;;2.50;;
51272;SDS011;37345;59.828;30.328;2022-09-11T17:27:07;4.47;;;2.30;;
51272;SDS011;37345;59.828;30.328;2022-09-11T17:29:34;5.10;;;2.25;;
51272;SDS011;37345;59.828;30.328;2022-09-11T17:32:00;2.92;;;1.90;;
51272;SDS011;37345;59.828;30.328;2022-09-11T17:34:26;4.43;;;2.03;;
51272;SDS011;37345;59.828;30.328;2022-09-11T17:36:52;3.03;;;2.00;;
51272;SDS011;37345;59.828;30.328;2022-09-11T17:39:19;4.82;;;2.17;;
51272;SDS011;37345;59.828;30.328;2022-09-11T17:41:45;3.08;;;2.10;;
51272;SDS011;37345;59.828;30.328;2022-09-11T17:44:11;3.10;;;1.73;;
51272;SDS011;37345;59.828;30.328;2022-09-11T17:46:38;3.20;;;1.87;;
51272;SDS011;37345;59.828;30.328;2022-09-11T17:49:04;3.72;;;1.95;;
51272;SDS011;37345;59.828;30.328;2022-09-11T17:51:30;10.43;;;4.30;;
51272;SDS011;37345;59.828;30.328;2022-09-11T17:53:57;4.97;;;1.87;;
51272;SDS011;37345;59.828;30.328;2022-09-11T17:56:28;3.83;;;1.83;;
51272;SDS011;37345;59.828;30.328;2022-09-11T17:58:58;3.20;;;1.80;;
51272;SDS011;37345;59.828;30.328;2022-09-11T18:01:25;3.92;;;2.05;;
51272;SDS011;37345;59.828;30.328;2022-09-11T18:03:52;2.97;;;1.77;;
51272;SDS011;37345;59.828;30.328;2022-09-11T18:08:45;3.15;;;1.95;;
51272;SDS011;37345;59.828;30.328;2022-09-11T18:11:11;3.55;;;1.83;;
51272;SDS011;37345;59.828;30.328;2022-09-11T18:13:37;3.53;;;1.65;;
51272;SDS011;37345;59.828;30.328;2022-09-11T18:16:05;3.30;;;1.90;;
51272;SDS011;37345;59.828;30.328;2022-09-11T18:18:32;5.00;;;2.58;;
51272;SDS011;37345;59.828;30.328;2022-09-11T18:21:05;5.20;;;1.90;;
51272;SDS011;37345;59.828;30.328;2022-09-11T18:23:34;3.83;;;2.00;;
51272;SDS011;37345;59.828;30.328;2022-09-11T18:26:00;3.08;;;1.70;;
51272;SDS011;37345;59.828;30.328;2022-09-11T18:28:27;3.47;;;1.42;;
51272;SDS011;37345;59.828;30.328;2022-09-11T18:30:59;4.07;;;1.77;;
51272;SDS011;37345;59.828;30.328;2022-09-11T18:33:25;3.08;;;1.58;;
51272;SDS011;37345;59.828;30.328;2022-09-11T18:35:51;4.10;;;1.52;;
51272;SDS011;37345;59.828;30.328;2022-09-11T18:38:17;2.72;;;1.88;;
51272;SDS011;37345;59.828;30.328;2022-09-11T18:40:44;4.68;;;1.70;;
51272;SDS011;37345;59.828;30.328;2022-09-11T18:43:10;3.80;;;1.73;;
51272;SDS011;37345;59.828;30.328;2022-09-11T18:45:37;3.58;;;1.92;;
51272;SDS011;37345;59.828;30.328;2022-09-11T18:48:05;3.83;;;1.90;;
51272;SDS011;37345;59.828;30.328;2022-09-11T18:50:31;3.08;;;1.80;;
51272;SDS011;37345;59.828;30.328;2022-09-11T18:53:00;4.70;;;2.00;;
51272;SDS011;37345;59.828;30.328;2022-09-11T18:55:26;2.92;;;1.83;;
51272;SDS011;37345;59.828;30.328;2022-09-11T18:57:52;4.87;;;2.13;;
51272;SDS011;37345;59.828;30.328;2022-09-11T19:00:19;5.68;;;1.80;;
51272;SDS011;37345;59.828;30.328;2022-09-11T19:02:45;5.45;;;1.88;;
51272;SDS011;37345;59.828;30.328;2022-09-11T19:05:14;3.78;;;1.90;;
51272;SDS011;37345;59.828;30.328;2022-09-11T19:07:41;7.40;;;1.90;;
51272;SDS011;37345;59.828;30.328;2022-09-11T19:10:08;4.85;;;2.42;;
51272;SDS011;37345;59.828;30.328;2022-09-11T19:12:35;3.85;;;2.30;;
51272;SDS011;37345;59.828;30.328;2022-09-11T19:15:01;3.13;;;2.00;;
51272;SDS011;37345;59.828;30.328;2022-09-11T19:17:27;3.78;;;2.20;;
51272;SDS011;37345;59.828;30.328;2022-09-11T19:19:53;4.27;;;2.10;;
51272;SDS011;37345;59.828;30.328;2022-09-11T19:22:19;3.43;;;2.40;;
51272;SDS011;37345;59.828;30.328;2022-09-11T19:27:32;4.43;;;2.40;;
51272;SDS011;37345;59.828;30.328;2022-09-11T19:29:57;5.43;;;2.60;;
51272;SDS011;37345;59.828;30.328;2022-09-11T19:32:23;4.57;;;2.33;;
51272;SDS011;37345;59.828;30.328;2022-09-11T19:34:49;3.93;;;2.60;;
